Terminal Aerodrome Forecast
Issued by NWS Bismarck, ND

Home | Current Version | Previous Version | Graphics & Text | Print | Product List | Glossary On
Versions: 1 2 3 4 5 6 7 8 9 10 11 12 13 14 15 16 17 18 19 20 21
000
FTUS43 KISN 201700
TAFISN
TAF
KISN 201720Z 2018/2118 14005KT P6SM VCSH BKN100
      TEMPO 2019/2023 5SM -SHRA OVC050
     FM210100 32007KT P6SM BKN060
     FM210600 33006KT P6SM SCT120=

USA.gov is the U.S. government's official web portal to all federal, state and local government web resources and services.